sensor_id;sensor_type;location;lat;lon;timestamp;pressure;altitude;pressure_sealevel;temperature;humidity
46007;BME280;31738;50.188;8.524;2023-04-10T00:00:30;99618.25;;;8.24;66.97
46007;BME280;31738;50.188;8.524;2023-04-10T00:02:59;99619.03;;;8.25;66.61
46007;BME280;31738;50.188;8.524;2023-04-10T00:05:28;99618.69;;;8.21;66.87
46007;BME280;31738;50.188;8.524;2023-04-10T00:07:53;99627.72;;;8.20;67.08
46007;BME280;31738;50.188;8.524;2023-04-10T00:10:19;99625.28;;;8.19;67.36
46007;BME280;31738;50.188;8.524;2023-04-10T00:12:44;99629.84;;;8.18;67.21
46007;BME280;31738;50.188;8.524;2023-04-10T00:15:10;99620.78;;;8.19;66.97
46007;BME280;31738;50.188;8.524;2023-04-10T00:17:36;99621.84;;;8.18;66.77
46007;BME280;31738;50.188;8.524;2023-04-10T00:20:01;99622.84;;;8.17;66.85
46007;BME280;31738;50.188;8.524;2023-04-10T00:22:28;99624.75;;;8.17;67.04
46007;BME280;31738;50.188;8.524;2023-04-10T00:24:53;99627.06;;;8.13;67.35
46007;BME280;31738;50.188;8.524;2023-04-10T00:27:19;99625.44;;;8.12;67.34
46007;BME280;31738;50.188;8.524;2023-04-10T00:29:44;99621.13;;;8.11;67.18
46007;BME280;31738;50.188;8.524;2023-04-10T00:32:10;99622.66;;;8.07;67.38
46007;BME280;31738;50.188;8.524;2023-04-10T00:34:35;99629.84;;;8.07;67.42
46007;BME280;31738;50.188;8.524;2023-04-10T00:37:01;99630.09;;;8.05;67.44
46007;BME280;31738;50.188;8.524;2023-04-10T00:39:26;99626.81;;;8.03;67.51
46007;BME280;31738;50.188;8.524;2023-04-10T00:41:52;99632.16;;;8.03;67.32
46007;BME280;31738;50.188;8.524;2023-04-10T00:44:17;99624.63;;;8.00;67.58
46007;BME280;31738;50.188;8.524;2023-04-10T00:46:42;99619.53;;;7.99;67.78
46007;BME280;31738;50.188;8.524;2023-04-10T00:49:08;99617.09;;;7.97;67.79
46007;BME280;31738;50.188;8.524;2023-04-10T00:51:38;99619.19;;;7.95;67.29
46007;BME280;31738;50.188;8.524;2023-04-10T00:54:03;99616.19;;;7.92;67.45
46007;BME280;31738;50.188;8.524;2023-04-10T00:56:29;99620.13;;;7.89;67.73
46007;BME280;31738;50.188;8.524;2023-04-10T00:59:02;99620.59;;;7.86;68.00
46007;BME280;31738;50.188;8.524;2023-04-10T01:01:33;99622.69;;;7.84;67.96
46007;BME280;31738;50.188;8.524;2023-04-10T01:03:59;99615.69;;;7.83;68.08
46007;BME280;31738;50.188;8.524;2023-04-10T01:10:12;99606.78;;;7.78;68.05
46007;BME280;31738;50.188;8.524;2023-04-10T01:15:21;99610.63;;;7.70;68.01
46007;BME280;31738;50.188;8.524;2023-04-10T01:18:00;99622.59;;;7.68;68.71
46007;BME280;31738;50.188;8.524;2023-04-10T01:20:31;99620.16;;;7.66;68.62
46007;BME280;31738;50.188;8.524;2023-04-10T01:25:48;99624.44;;;7.67;68.43
46007;BME280;31738;50.188;8.524;2023-04-10T01:28:46;99615.84;;;7.65;68.29
46007;BME280;31738;50.188;8.524;2023-04-10T01:31:46;99607.28;;;7.63;68.68
46007;BME280;31738;50.188;8.524;2023-04-10T01:34:24;99600.50;;;7.61;68.44
46007;BME280;31738;50.188;8.524;2023-04-10T01:36:59;99601.34;;;7.61;69.09
46007;BME280;31738;50.188;8.524;2023-04-10T01:39:26;99600.50;;;7.61;68.99
46007;BME280;31738;50.188;8.524;2023-04-10T01:41:55;99605.06;;;7.60;69.39
46007;BME280;31738;50.188;8.524;2023-04-10T01:44:37;99603.41;;;7.59;68.93
46007;BME280;31738;50.188;8.524;2023-04-10T01:47:05;99594.84;;;7.57;69.00
46007;BME280;31738;50.188;8.524;2023-04-10T01:49:33;99583.34;;;7.57;68.93
46007;BME280;31738;50.188;8.524;2023-04-10T01:52:02;99583.59;;;7.55;69.46
46007;BME280;31738;50.188;8.524;2023-04-10T01:54:36;99584.63;;;7.54;69.36
46007;BME280;31738;50.188;8.524;2023-04-10T01:57:03;99581.38;;;7.52;69.60
46007;BME280;31738;50.188;8.524;2023-04-10T01:59:32;99586.13;;;7.50;69.52
46007;BME280;31738;50.188;8.524;2023-04-10T02:01:59;99578.13;;;7.50;69.03
46007;BME280;31738;50.188;8.524;2023-04-10T02:04:25;99578.13;;;7.50;69.16
46007;BME280;31738;50.188;8.524;2023-04-10T02:10:06;99564.09;;;7.43;69.56
46007;BME280;31738;50.188;8.524;2023-04-10T02:15:23;99558.41;;;7.40;69.55
46007;BME280;31738;50.188;8.524;2023-04-10T02:17:51;99555.97;;;7.38;70.35
46007;BME280;31738;50.188;8.524;2023-04-10T02:20:20;99555.97;;;7.38;70.10
46007;BME280;31738;50.188;8.524;2023-04-10T02:22:47;99558.63;;;7.38;70.17
46007;BME280;31738;50.188;8.524;2023-04-10T02:25:13;99542.84;;;7.37;70.23
46007;BME280;31738;50.188;8.524;2023-04-10T02:27:39;99556.19;;;7.37;70.28
46007;BME280;31738;50.188;8.524;2023-04-10T02:30:05;99545.75;;;7.35;70.16
46007;BME280;31738;50.188;8.524;2023-04-10T02:32:33;99549.47;;;7.34;70.39
46007;BME280;31738;50.188;8.524;2023-04-10T02:34:59;99553.75;;;7.35;70.67
46007;BME280;31738;50.188;8.524;2023-04-10T02:37:29;99548.66;;;7.34;70.48
46007;BME280;31738;50.188;8.524;2023-04-10T02:39:57;99558.75;;;7.32;71.11
46007;BME280;31738;50.188;8.524;2023-04-10T02:42:24;99562.47;;;7.31;71.11
46007;BME280;31738;50.188;8.524;2023-04-10T02:44:53;99556.31;;;7.30;70.75
46007;BME280;31738;50.188;8.524;2023-04-10T02:47:20;99562.69;;;7.29;70.82
46007;BME280;31738;50.188;8.524;2023-04-10T02:49:46;99563.28;;;7.31;71.16
46007;BME280;31738;50.188;8.524;2023-04-10T02:52:16;99559.78;;;7.31;71.02
46007;BME280;31738;50.188;8.524;2023-04-10T02:54:45;99550.97;;;7.30;70.74
46007;BME280;31738;50.188;8.524;2023-04-10T02:57:11;99555.28;;;7.31;71.36
46007;BME280;31738;50.188;8.524;2023-04-10T02:59:40;99556.06;;;7.32;70.67
46007;BME280;31738;50.188;8.524;2023-04-10T03:02:05;99550.97;;;7.30;71.17
46007;BME280;31738;50.188;8.524;2023-04-10T03:04:34;99549.13;;;7.31;71.13
46007;BME280;31738;50.188;8.524;2023-04-10T03:07:00;99539.47;;;7.30;70.80
46007;BME280;31738;50.188;8.524;2023-04-10T03:09:29;99532.53;;;7.29;70.79
46007;BME280;31738;50.188;8.524;2023-04-10T03:11:54;99536.25;;;7.28;71.16
46007;BME280;31738;50.188;8.524;2023-04-10T03:14:23;99533.81;;;7.26;71.00
46007;BME280;31738;50.188;8.524;2023-04-10T03:16:48;99533.59;;;7.28;70.94
46007;BME280;31738;50.188;8.524;2023-04-10T03:19:14;99530.91;;;7.28;71.15
46007;BME280;31738;50.188;8.524;2023-04-10T03:21:40;99523.13;;;7.26;71.25
46007;BME280;31738;50.188;8.524;2023-04-10T03:24:06;99519.41;;;7.27;70.94
46007;BME280;31738;50.188;8.524;2023-04-10T03:26:31;99524.75;;;7.27;70.85
46007;BME280;31738;50.188;8.524;2023-04-10T03:28:57;99521.50;;;7.25;71.05
46007;BME280;31738;50.188;8.524;2023-04-10T03:31:23;99518.59;;;7.27;71.04
46007;BME280;31738;50.188;8.524;2023-04-10T03:33:53;99524.75;;;7.27;70.97
46007;BME280;31738;50.188;8.524;2023-04-10T03:36:19;99526.28;;;7.23;71.06
46007;BME280;31738;50.188;8.524;2023-04-10T03:38:46;99518.50;;;7.22;71.22
46007;BME280;31738;50.188;8.524;2023-04-10T03:41:12;99515.00;;;7.21;71.26
46007;BME280;31738;50.188;8.524;2023-04-10T03:43:38;99514.19;;;7.21;71.40
46007;BME280;31738;50.188;8.524;2023-04-10T03:46:04;99513.41;;;7.20;71.32
46007;BME280;31738;50.188;8.524;2023-04-10T03:48:30;99506.19;;;7.21;71.28
46007;BME280;31738;50.188;8.524;2023-04-10T03:50:57;99504.34;;;7.21;71.20
46007;BME280;31738;50.188;8.524;2023-04-10T03:53:25;99509.69;;;7.21;70.85
46007;BME280;31738;50.188;8.524;2023-04-10T03:55:52;99510.16;;;7.18;71.36
46007;BME280;31738;50.188;8.524;2023-04-10T03:58:23;99510.16;;;7.18;71.78
46007;BME280;31738;50.188;8.524;2023-04-10T04:00:49;99505.28;;;7.15;71.68
46007;BME280;31738;50.188;8.524;2023-04-10T04:03:23;99507.34;;;7.13;71.34
46007;BME280;31738;50.188;8.524;2023-04-10T04:06:02;99511.91;;;7.13;71.43
46007;BME280;31738;50.188;8.524;2023-04-10T04:08:35;99513.97;;;7.11;71.33
46007;BME280;31738;50.188;8.524;2023-04-10T04:11:08;99510.72;;;7.09;71.58
46007;BME280;31738;50.188;8.524;2023-04-10T04:13:53;99513.63;;;7.07;71.43
46007;BME280;31738;50.188;8.524;2023-04-10T04:16:44;99517.34;;;7.06;71.35
46007;BME280;31738;50.188;8.524;2023-04-10T04:19:48;99519.06;;;7.00;71.63
46007;BME280;31738;50.188;8.524;2023-04-10T04:22:35;99509.66;;;6.98;71.72
46007;BME280;31738;50.188;8.524;2023-04-10T04:25:14;99511.75;;;6.96;71.66
46007;BME280;31738;50.188;8.524;2023-04-10T04:28:08;99522.31;;;6.91;72.21
46007;BME280;31738;50.188;8.524;2023-04-10T04:30:45;99510.59;;;6.92;71.98
46007;BME280;31738;50.188;8.524;2023-04-10T04:33:16;99513.50;;;6.90;72.10
46007;BME280;31738;50.188;8.524;2023-04-10T04:36:22;99509.44;;;6.88;72.66
46007;BME280;31738;50.188;8.524;2023-04-10T04:39:06;99501.66;;;6.86;72.67
46007;BME280;31738;50.188;8.524;2023-04-10T04:41:53;99506.78;;;6.88;72.68
46007;BME280;31738;50.188;8.524;2023-04-10T04:44:39;99512.56;;;6.85;72.77
46007;BME280;31738;50.188;8.524;2023-04-10T04:47:07;99515.47;;;6.83;73.10
46007;BME280;31738;50.188;8.524;2023-04-10T04:49:54;99516.50;;;6.82;73.08
46007;BME280;31738;50.188;8.524;2023-04-10T04:52:23;99516.25;;;6.84;72.97
46007;BME280;31738;50.188;8.524;2023-04-10T04:55:16;99507.94;;;6.80;73.02
46007;BME280;31738;50.188;8.524;2023-04-10T04:58:16;99514.06;;;6.81;73.10
46007;BME280;31738;50.188;8.524;2023-04-10T05:01:07;99515.69;;;6.82;73.42
46007;BME280;31738;50.188;8.524;2023-04-10T05:03:51;99513.81;;;6.82;73.19
46007;BME280;31738;50.188;8.524;2023-04-10T05:06:38;99505.38;;;6.85;73.51
46007;BME280;31738;50.188;8.524;2023-04-10T05:09:18;99510.22;;;6.88;73.50
46007;BME280;31738;50.188;8.524;2023-04-10T05:12:04;99506.78;;;6.88;73.23
46007;BME280;31738;50.188;8.524;2023-04-10T05:14:48;99508.97;;;6.91;73.16
46007;BME280;31738;50.188;8.524;2023-04-10T05:17:40;99502.59;;;6.92;73.31
46007;BME280;31738;50.188;8.524;2023-04-10T05:20:37;99506.88;;;6.93;72.97
46007;BME280;31738;50.188;8.524;2023-04-10T05:23:39;99502.38;;;6.93;73.09
46007;BME280;31738;50.188;8.524;2023-04-10T05:26:14;99511.75;;;6.96;73.49
46007;BME280;31738;50.188;8.524;2023-04-10T05:28:53;99508.38;;;7.00;73.59
46007;BME280;31738;50.188;8.524;2023-04-10T05:31:34;99507.13;;;7.03;73.18
46007;BME280;31738;50.188;8.524;2023-04-10T05:34:09;99514.44;;;7.08;73.46
46007;BME280;31738;50.188;8.524;2023-04-10T05:36:43;99513.16;;;7.10;73.53
46007;BME280;31738;50.188;8.524;2023-04-10T05:39:22;99514.34;;;7.14;73.58
46007;BME280;31738;50.188;8.524;2023-04-10T05:41:50;99514.44;;;7.19;73.60
46007;BME280;31738;50.188;8.524;2023-04-10T05:44:25;99517.44;;;7.23;73.67
46007;BME280;31738;50.188;8.524;2023-04-10T05:47:01;99516.75;;;7.27;73.53
46007;BME280;31738;50.188;8.524;2023-04-10T05:49:50;99518.94;;;7.30;73.21
46007;BME280;31738;50.188;8.524;2023-04-10T05:52:16;99518.00;;;7.36;73.15
46007;BME280;31738;50.188;8.524;2023-04-10T05:54:58;99522.88;;;7.39;73.33
46007;BME280;31738;50.188;8.524;2023-04-10T05:57:47;99516.84;;;7.44;73.51
46007;BME280;31738;50.188;8.524;2023-04-10T06:00:31;99513.47;;;7.48;72.46
46007;BME280;31738;50.188;8.524;2023-04-10T06:03:16;99517.78;;;7.49;72.52
46007;BME280;31738;50.188;8.524;2023-04-10T06:05:49;99523.38;;;7.48;72.34
46007;BME280;31738;50.188;8.524;2023-04-10T06:08:15;99519.88;;;7.59;71.54
46007;BME280;31738;50.188;8.524;2023-04-10T06:10:40;99520.91;;;7.69;71.67
46007;BME280;31738;50.188;8.524;2023-04-10T06:13:09;99516.00;;;7.78;71.71
46007;BME280;31738;50.188;8.524;2023-04-10T06:15:34;99522.81;;;7.85;71.24
46007;BME280;31738;50.188;8.524;2023-04-10T06:18:00;99516.28;;;7.93;71.38
46007;BME280;31738;50.188;8.524;2023-04-10T06:20:26;99520.69;;;7.99;70.96
46007;BME280;31738;50.188;8.524;2023-04-10T06:22:52;99514.16;;;8.06;71.09
46007;BME280;31738;50.188;8.524;2023-04-10T06:25:18;99506.00;;;8.13;70.76
46007;BME280;31738;50.188;8.524;2023-04-10T06:27:43;99516.56;;;8.19;70.76
46007;BME280;31738;50.188;8.524;2023-04-10T06:30:09;99517.72;;;8.23;70.04
46007;BME280;31738;50.188;8.524;2023-04-10T06:32:35;99517.94;;;8.33;69.78
46007;BME280;31738;50.188;8.524;2023-04-10T06:35:01;99521.50;;;8.39;69.90
46007;BME280;31738;50.188;8.524;2023-04-10T06:37:28;99519.50;;;8.46;69.40
46007;BME280;31738;50.188;8.524;2023-04-10T06:40:08;99524.91;;;8.51;69.44
46007;BME280;31738;50.188;8.524;2023-04-10T06:42:35;99530.03;;;8.52;69.33
46007;BME280;31738;50.188;8.524;2023-04-10T06:45:08;99539.19;;;8.56;69.47
46007;BME280;31738;50.188;8.524;2023-04-10T06:47:33;99535.56;;;8.62;69.25
46007;BME280;31738;50.188;8.524;2023-04-10T06:49:59;99533.00;;;8.68;69.52
46007;BME280;31738;50.188;8.524;2023-04-10T06:52:24;99535.47;;;8.74;69.51
46007;BME280;31738;50.188;8.524;2023-04-10T06:54:50;99536.41;;;8.80;69.33
46007;BME280;31738;50.188;8.524;2023-04-10T06:57:15;99533.31;;;8.88;69.48
46007;BME280;31738;50.188;8.524;2023-04-10T06:59:41;99535.97;;;8.88;69.64
46007;BME280;31738;50.188;8.524;2023-04-10T07:02:07;99531.38;;;9.00;68.60
46007;BME280;31738;50.188;8.524;2023-04-10T07:04:33;99537.38;;;9.07;68.33
46007;BME280;31738;50.188;8.524;2023-04-10T07:06:58;99534.78;;;9.12;68.68
46007;BME280;31738;50.188;8.524;2023-04-10T07:09:28;99531.91;;;9.18;68.34
46007;BME280;31738;50.188;8.524;2023-04-10T07:11:55;99535.50;;;9.24;68.19
46007;BME280;31738;50.188;8.524;2023-04-10T07:14:20;99540.94;;;9.29;68.13
46007;BME280;31738;50.188;8.524;2023-04-10T07:16:46;99543.19;;;9.37;67.98
46007;BME280;31738;50.188;8.524;2023-04-10T07:19:12;99538.47;;;9.44;68.08
46007;BME280;31738;50.188;8.524;2023-04-10T07:21:37;99537.50;;;9.50;67.48
46007;BME280;31738;50.188;8.524;2023-04-10T07:24:03;99540.25;;;9.55;67.52
46007;BME280;31738;50.188;8.524;2023-04-10T07:26:28;99542.50;;;9.63;67.26
46007;BME280;31738;50.188;8.524;2023-04-10T07:28:54;99541.50;;;9.69;67.31
46007;BME280;31738;50.188;8.524;2023-04-10T07:31:19;99537.84;;;9.75;66.96
46007;BME280;31738;50.188;8.524;2023-04-10T07:33:45;99537.41;;;9.83;66.93
46007;BME280;31738;50.188;8.524;2023-04-10T07:36:17;99534.28;;;9.91;67.04
46007;BME280;31738;50.188;8.524;2023-04-10T07:38:42;99537.97;;;10.06;66.43
46007;BME280;31738;50.188;8.524;2023-04-10T07:41:08;99540.03;;;10.21;66.67
46007;BME280;31738;50.188;8.524;2023-04-10T07:43:36;99534.31;;;10.34;66.47
46007;BME280;31738;50.188;8.524;2023-04-10T07:46:04;99538.22;;;10.48;66.26
46007;BME280;31738;50.188;8.524;2023-04-10T07:48:32;99541.84;;;10.64;65.58
46007;BME280;31738;50.188;8.524;2023-04-10T07:50:58;99547.63;;;10.77;64.56
46007;BME280;31738;50.188;8.524;2023-04-10T07:53:23;99545.56;;;10.89;64.69
46007;BME280;31738;50.188;8.524;2023-04-10T07:55:51;99548.84;;;10.96;64.43
46007;BME280;31738;50.188;8.524;2023-04-10T07:58:20;99542.75;;;11.06;63.37
46007;BME280;31738;50.188;8.524;2023-04-10T08:00:46;99549.53;;;11.13;63.64
46007;BME280;31738;50.188;8.524;2023-04-10T08:03:14;99542.63;;;11.22;62.94
46007;BME280;31738;50.188;8.524;2023-04-10T08:05:40;99544.31;;;11.33;62.93
46007;BME280;31738;50.188;8.524;2023-04-10T08:08:05;99540.38;;;11.46;62.81
46007;BME280;31738;50.188;8.524;2023-04-10T08:10:31;99543.41;;;11.59;62.86
46007;BME280;31738;50.188;8.524;2023-04-10T08:12:56;99545.41;;;11.74;62.69
46007;BME280;31738;50.188;8.524;2023-04-10T08:15:22;99546.81;;;11.81;62.30
46007;BME280;31738;50.188;8.524;2023-04-10T08:17:47;99541.22;;;11.98;62.23
46007;BME280;31738;50.188;8.524;2023-04-10T08:20:14;99544.25;;;12.12;61.85
46007;BME280;31738;50.188;8.524;2023-04-10T08:22:40;99539.16;;;12.20;61.05
46007;BME280;31738;50.188;8.524;2023-04-10T08:25:05;99538.38;;;12.30;60.58
46007;BME280;31738;50.188;8.524;2023-04-10T08:27:31;99532.25;;;12.44;60.02
46007;BME280;31738;50.188;8.524;2023-04-10T08:29:59;99539.78;;;12.57;59.77
46007;BME280;31738;50.188;8.524;2023-04-10T08:32:26;99533.63;;;12.67;59.64
46007;BME280;31738;50.188;8.524;2023-04-10T08:34:52;99538.50;;;12.80;58.90
46007;BME280;31738;50.188;8.524;2023-04-10T08:37:17;99536.09;;;12.93;58.94
46007;BME280;31738;50.188;8.524;2023-04-10T08:39:46;99544.47;;;13.07;58.21
46007;BME280;31738;50.188;8.524;2023-04-10T08:42:11;99543.91;;;13.20;57.67
46007;BME280;31738;50.188;8.524;2023-04-10T08:44:37;99544.47;;;13.32;57.81
46007;BME280;31738;50.188;8.524;2023-04-10T08:47:04;99543.06;;;13.49;57.04
46007;BME280;31738;50.188;8.524;2023-04-10T08:49:38;99536.88;;;13.64;56.49
46007;BME280;31738;50.188;8.524;2023-04-10T08:52:13;99548.16;;;13.81;56.50
46007;BME280;31738;50.188;8.524;2023-04-10T08:54:40;99548.69;;;13.73;55.71
46007;BME280;31738;50.188;8.524;2023-04-10T08:57:14;99552.94;;;13.89;55.67
46007;BME280;31738;50.188;8.524;2023-04-10T08:59:45;99549.69;;;14.02;55.78
46007;BME280;31738;50.188;8.524;2023-04-10T09:02:11;99543.13;;;14.23;55.54
46007;BME280;31738;50.188;8.524;2023-04-10T09:04:36;99543.06;;;14.43;55.38
46007;BME280;31738;50.188;8.524;2023-04-10T09:07:02;99541.84;;;14.59;55.25
46007;BME280;31738;50.188;8.524;2023-04-10T09:09:27;99541.34;;;14.62;53.90
46007;BME280;31738;50.188;8.524;2023-04-10T09:11:58;99524.41;;;14.85;54.99
46007;BME280;31738;50.188;8.524;2023-04-10T09:14:29;99532.41;;;15.00;54.20
46007;BME280;31738;50.188;8.524;2023-04-10T09:17:18;99531.41;;;15.25;53.50
46007;BME280;31738;50.188;8.524;2023-04-10T09:19:48;99537.81;;;15.00;51.72
46007;BME280;31738;50.188;8.524;2023-04-10T09:22:15;99546.91;;;15.14;50.86
46007;BME280;31738;50.188;8.524;2023-04-10T09:24:43;99546.41;;;15.07;50.61
46007;BME280;31738;50.188;8.524;2023-04-10T09:27:09;99546.91;;;15.14;51.05
46007;BME280;31738;50.188;8.524;2023-04-10T09:29:45;99547.22;;;15.36;50.36
46007;BME280;31738;50.188;8.524;2023-04-10T09:32:12;99548.31;;;15.41;50.39
46007;BME280;31738;50.188;8.524;2023-04-10T09:34:56;99547.69;;;15.49;49.80
46007;BME280;31738;50.188;8.524;2023-04-10T09:37:30;99555.63;;;15.35;49.23
46007;BME280;31738;50.188;8.524;2023-04-10T09:39:56;99557.84;;;15.28;49.38
46007;BME280;31738;50.188;8.524;2023-04-10T09:42:33;99564.06;;;15.28;48.21
46007;BME280;31738;50.188;8.524;2023-04-10T09:44:59;99567.28;;;15.30;48.58
46007;BME280;31738;50.188;8.524;2023-04-10T09:47:26;99566.44;;;15.35;48.71
46007;BME280;31738;50.188;8.524;2023-04-10T09:49:58;99570.31;;;15.58;48.01
46007;BME280;31738;50.188;8.524;2023-04-10T09:52:33;99566.38;;;15.74;47.83
46007;BME280;31738;50.188;8.524;2023-04-10T09:55:08;99565.38;;;15.88;47.90
46007;BME280;31738;50.188;8.524;2023-04-10T09:57:41;99560.22;;;15.92;47.91
46007;BME280;31738;50.188;8.524;2023-04-10T10:00:09;99561.16;;;16.06;47.57
46007;BME280;31738;50.188;8.524;2023-04-10T10:02:36;99554.34;;;16.08;47.49
46007;BME280;31738;50.188;8.524;2023-04-10T10:05:05;99542.59;;;16.18;47.67
46007;BME280;31738;50.188;8.524;2023-04-10T10:07:31;99543.72;;;16.35;47.22
46007;BME280;31738;50.188;8.524;2023-04-10T10:09:57;99533.00;;;16.49;46.88
46007;BME280;31738;50.188;8.524;2023-04-10T10:12:27;99531.09;;;16.68;47.18
46007;BME280;31738;50.188;8.524;2023-04-10T10:15:30;99531.91;;;16.87;46.46
46007;BME280;31738;50.188;8.524;2023-04-10T10:17:51;99526.13;;;16.75;45.70
46007;BME280;31738;50.188;8.524;2023-04-10T10:20:21;99527.06;;;16.84;45.74
46007;BME280;31738;50.188;8.524;2023-04-10T10:22:48;99524.00;;;16.90;45.79
46007;BME280;31738;50.188;8.524;2023-04-10T10:25:14;99524.03;;;17.04;45.68
46007;BME280;31738;50.188;8.524;2023-04-10T10:27:40;99531.06;;;17.05;45.21
46007;BME280;31738;50.188;8.524;2023-04-10T10:30:08;99524.78;;;17.23;44.92
46007;BME280;31738;50.188;8.524;2023-04-10T10:32:34;99533.97;;;17.27;44.05
46007;BME280;31738;50.188;8.524;2023-04-10T10:35:01;99515.38;;;17.34;44.25
46007;BME280;31738;50.188;8.524;2023-04-10T10:37:53;99522.06;;;17.55;44.00
46007;BME280;31738;50.188;8.524;2023-04-10T10:40:53;99531.72;;;17.29;41.45
46007;BME280;31738;50.188;8.524;2023-04-10T10:46:16;99509.53;;;17.46;44.39
46007;BME280;31738;50.188;8.524;2023-04-10T10:48:57;99524.56;;;17.38;41.16
46007;BME280;31738;50.188;8.524;2023-04-10T10:51:53;99517.53;;;17.51;42.86
46007;BME280;31738;50.188;8.524;2023-04-10T10:54:35;99522.50;;;17.49;41.25
46007;BME280;31738;50.188;8.524;2023-04-10T10:57:02;99512.84;;;17.56;42.62
46007;BME280;31738;50.188;8.524;2023-04-10T11:02:14;99511.19;;;17.87;41.69
46007;BME280;31738;50.188;8.524;2023-04-10T11:04:44;99498.38;;;18.01;42.08
46007;BME280;31738;50.188;8.524;2023-04-10T11:07:11;99492.03;;;18.19;41.58
46007;BME280;31738;50.188;8.524;2023-04-10T11:09:53;99481.31;;;18.36;42.25
46007;BME280;31738;50.188;8.524;2023-04-10T11:12:25;99468.53;;;18.50;42.39
46007;BME280;31738;50.188;8.524;2023-04-10T11:15:03;99459.28;;;18.73;42.40
46007;BME280;31738;50.188;8.524;2023-04-10T11:17:55;99463.56;;;18.88;42.20
46007;BME280;31738;50.188;8.524;2023-04-10T11:20:24;99461.75;;;18.61;41.73
46007;BME280;31738;50.188;8.524;2023-04-10T11:23:28;99460.78;;;18.57;42.07
46007;BME280;31738;50.188;8.524;2023-04-10T11:25:56;99469.38;;;18.37;41.52
46007;BME280;31738;50.188;8.524;2023-04-10T11:28:45;99463.13;;;18.37;41.55
46007;BME280;31738;50.188;8.524;2023-04-10T11:31:19;99461.34;;;18.19;40.82
46007;BME280;31738;50.188;8.524;2023-04-10T11:36:22;99453.56;;;18.26;42.23
46007;BME280;31738;50.188;8.524;2023-04-10T11:39:11;99443.91;;;18.33;42.62
46007;BME280;31738;50.188;8.524;2023-04-10T11:41:55;99445.34;;;18.17;41.62
46007;BME280;31738;50.188;8.524;2023-04-10T11:44:31;99433.88;;;18.20;41.68
46007;BME280;31738;50.188;8.524;2023-04-10T11:47:03;99430.75;;;18.27;41.80
46007;BME280;31738;50.188;8.524;2023-04-10T11:49:31;99433.97;;;18.42;40.95
46007;BME280;31738;50.188;8.524;2023-04-10T11:51:57;99432.84;;;18.43;40.73
46007;BME280;31738;50.188;8.524;2023-04-10T11:54:24;99432.72;;;18.48;40.08
46007;BME280;31738;50.188;8.524;2023-04-10T11:57:05;99434.06;;;18.59;38.62
46007;BME280;31738;50.188;8.524;2023-04-10T11:59:32;99426.72;;;18.60;39.50
46007;BME280;31738;50.188;8.524;2023-04-10T12:02:13;99421.22;;;18.73;38.83
46007;BME280;31738;50.188;8.524;2023-04-10T12:04:40;99426.75;;;18.82;38.73
46007;BME280;31738;50.188;8.524;2023-04-10T12:07:06;99424.75;;;18.96;39.13
46007;BME280;31738;50.188;8.524;2023-04-10T12:09:32;99432.13;;;19.04;38.26
46007;BME280;31738;50.188;8.524;2023-04-10T12:12:01;99420.81;;;19.11;38.69
46007;BME280;31738;50.188;8.524;2023-04-10T12:14:32;99416.72;;;19.22;38.03
46007;BME280;31738;50.188;8.524;2023-04-10T12:16:59;99434.88;;;19.35;37.19
46007;BME280;31738;50.188;8.524;2023-04-10T12:19:24;99427.56;;;19.44;36.50
46007;BME280;31738;50.188;8.524;2023-04-10T12:21:50;99429.31;;;19.40;36.19
46007;BME280;31738;50.188;8.524;2023-04-10T12:24:39;99426.16;;;19.55;37.31
46007;BME280;31738;50.188;8.524;2023-04-10T12:27:04;99441.72;;;19.54;36.33
46007;BME280;31738;50.188;8.524;2023-04-10T12:29:30;99436.78;;;19.65;36.57
46007;BME280;31738;50.188;8.524;2023-04-10T12:31:56;99438.75;;;19.81;36.03
46007;BME280;31738;50.188;8.524;2023-04-10T12:34:21;99430.47;;;19.95;36.35
46007;BME280;31738;50.188;8.524;2023-04-10T12:36:51;99435.63;;;20.05;35.57
46007;BME280;31738;50.188;8.524;2023-04-10T12:39:24;99424.44;;;20.15;35.63
46007;BME280;31738;50.188;8.524;2023-04-10T12:41:51;99434.16;;;20.07;35.00
46007;BME280;31738;50.188;8.524;2023-04-10T12:44:16;99427.28;;;20.10;34.99
46007;BME280;31738;50.188;8.524;2023-04-10T12:46:43;99432.13;;;20.13;34.84
46007;BME280;31738;50.188;8.524;2023-04-10T12:49:14;99432.59;;;20.23;34.48
46007;BME280;31738;50.188;8.524;2023-04-10T12:51:41;99429.72;;;20.28;33.02
46007;BME280;31738;50.188;8.524;2023-04-10T12:54:07;99425.09;;;20.29;34.62
46007;BME280;31738;50.188;8.524;2023-04-10T12:56:45;99426.03;;;20.33;33.41
46007;BME280;31738;50.188;8.524;2023-04-10T12:59:24;99427.31;;;20.27;33.33
46007;BME280;31738;50.188;8.524;2023-04-10T13:02:01;99416.44;;;20.27;33.96
46007;BME280;31738;50.188;8.524;2023-04-10T13:04:33;99425.09;;;20.29;33.00
46007;BME280;31738;50.188;8.524;2023-04-10T13:06:58;99420.78;;;20.28;33.24
46007;BME280;31738;50.188;8.524;2023-04-10T13:09:28;99416.59;;;20.30;33.16
46007;BME280;31738;50.188;8.524;2023-04-10T13:11:53;99420.59;;;20.33;32.70
46007;BME280;31738;50.188;8.524;2023-04-10T13:14:21;99418.84;;;20.37;32.40
46007;BME280;31738;50.188;8.524;2023-04-10T13:16:49;99416.44;;;20.36;32.83
46007;BME280;31738;50.188;8.524;2023-04-10T13:19:17;99420.59;;;20.33;32.74
46007;BME280;31738;50.188;8.524;2023-04-10T13:21:45;99402.81;;;20.27;32.18
46007;BME280;31738;50.188;8.524;2023-04-10T13:24:13;99413.22;;;20.25;32.55
46007;BME280;31738;50.188;8.524;2023-04-10T13:26:39;99401.69;;;20.28;33.34
46007;BME280;31738;50.188;8.524;2023-04-10T13:29:05;99391.41;;;20.25;34.42
46007;BME280;31738;50.188;8.524;2023-04-10T13:31:33;99379.06;;;20.19;35.02
46007;BME280;31738;50.188;8.524;2023-04-10T13:33:58;99375.88;;;20.17;35.51
46007;BME280;31738;50.188;8.524;2023-04-10T13:36:23;99373.81;;;20.14;35.28
46007;BME280;31738;50.188;8.524;2023-04-10T13:38:50;99366.88;;;20.08;35.84
46007;BME280;31738;50.188;8.524;2023-04-10T13:41:15;99360.28;;;20.09;36.05
46007;BME280;31738;50.188;8.524;2023-04-10T13:43:41;99349.41;;;20.09;36.26
46007;BME280;31738;50.188;8.524;2023-04-10T13:46:06;99342.81;;;20.10;35.87
46007;BME280;31738;50.188;8.524;2023-04-10T13:48:32;99345.09;;;20.08;35.59